»·PEaware :: N57364 KSMX-KBFL

N57364 :: KSMX-KBFL

FLIGHT INFORMATION

Flight Status: Arrived
Operator: Privately registered:
United States
More flights under this callsign
Pilot: Ed S. (33230)
Aircraft: Unknown
(P28S)
More flights by this aircraft type
Origin: KSMX Santa Maria Pub/Capt Hancock
United States
Destination: KBFL Meadows
United States
More flights between these airports :: More routes between these airports
Route:
File this flight plan on PilotEdge
Remarks:
Altitude:
(Current/Filed)
9,500ft
Speed:
(Current/Filed)
130kts
Departed: 14-Jan-21 11:53 AM
Arrived: 14-Jan-21 12:35 PM
Distance/Time
Traveled:
76nm/0:42
Distance/Time
To Go:
Arrived

Flight Plot

Page will automatically refresh every two minutes.


Map Options




Map Legend


Flown Route
Filed Route
Departure Airport
Arrival Airport
Navaid (VOR, NDB)
Fix

Horizontal Profiles

Position Reports

Time Latitude Longitude Heading Altitude Ground
Speed
14-Jan-21 11:34 34.899143 -120.448981 215 264ft 0kts
14-Jan-21 11:35 34.899143 -120.448981 215 264ft 0kts
14-Jan-21 11:36 34.899143 -120.448981 215 264ft 0kts
14-Jan-21 11:37 34.899143 -120.448981 215 264ft 0kts
14-Jan-21 11:38 34.896951 -120.446153 273 264ft 0kts
14-Jan-21 11:39 34.896951 -120.446153 273 264ft 0kts
14-Jan-21 11:40 34.896951 -120.446153 273 264ft 0kts
14-Jan-21 11:41 34.896951 -120.446153 273 264ft 0kts
14-Jan-21 11:42 34.896951 -120.446153 273 264ft 0kts
14-Jan-21 11:43 34.896951 -120.446153 273 264ft 0kts
14-Jan-21 11:44 34.896951 -120.446153 273 264ft 0kts
14-Jan-21 11:45 34.896951 -120.446153 273 264ft 0kts
14-Jan-21 11:46 34.896958 -120.446292 273 264ft 1kts
14-Jan-21 11:47 34.895957 -120.445850 135 264ft 8kts
14-Jan-21 11:48 34.894885 -120.445038 226 264ft 6kts
14-Jan-21 11:49 34.893713 -120.445210 180 264ft 7kts
14-Jan-21 11:50 34.893677 -120.445210 178 264ft 0kts
14-Jan-21 11:51 34.893677 -120.445210 178 264ft 0kts
14-Jan-21 11:53 34.893854 -120.447156 313 264ft 47kts
14-Jan-21 11:54 34.910847 -120.468867 309 927ft 109kts
14-Jan-21 11:55 34.935579 -120.480423 359 1918ft 100kts
14-Jan-21 11:56 34.958357 -120.463996 61 2912ft 100kts
14-Jan-21 11:57 34.969316 -120.432685 63 3918ft 101kts
14-Jan-21 11:58 34.979762 -120.400953 63 4922ft 101kts
14-Jan-21 11:59 34.983649 -120.365413 80 5855ft 110kts
14-Jan-21 12:00 34.985945 -120.327972 81 6750ft 111kts
14-Jan-21 12:01 34.987731 -120.290505 80 7638ft 110kts
14-Jan-21 12:02 34.988908 -120.253927 80 8520ft 107kts
14-Jan-21 12:03 34.994091 -120.217881 64 9417ft 109kts
14-Jan-21 12:04 35.008694 -120.179425 57 9507ft 133kts
14-Jan-21 12:05 35.024919 -120.138194 57 9507ft 135kts
14-Jan-21 12:06 35.041178 -120.097193 57 9534ft 133kts
14-Jan-21 12:07 35.057525 -120.056280 57 9534ft 133kts
14-Jan-21 12:08 35.073894 -120.015545 57 9534ft 133kts
14-Jan-21 12:09 35.090240 -119.975002 57 9534ft 133kts
14-Jan-21 12:09 35.103962 -119.939841 61 9418ft 137kts
14-Jan-21 12:11 35.120681 -119.890092 61 9419ft 135kts
14-Jan-21 12:11 35.132615 -119.854667 61 9419ft 135kts
14-Jan-21 12:12 35.147086 -119.812188 58 9419ft 134kts
14-Jan-21 12:13 35.163170 -119.771103 59 9419ft 133kts
14-Jan-21 12:14 35.178724 -119.730140 59 9432ft 132kts
14-Jan-21 12:15 35.194204 -119.689768 59 9455ft 130kts
14-Jan-21 12:16 35.209656 -119.649983 58 9482ft 129kts
14-Jan-21 12:17 35.225667 -119.609716 58 9121ft 136kts
14-Jan-21 12:18 35.243074 -119.566604 60 8119ft 142kts
14-Jan-21 12:19 35.259810 -119.523377 62 7118ft 140kts
14-Jan-21 12:20 35.276154 -119.480366 64 6112ft 139kts
14-Jan-21 12:21 35.292920 -119.437510 65 5103ft 140kts
14-Jan-21 12:22 35.309691 -119.394160 65 4095ft 142kts
14-Jan-21 12:23 35.326833 -119.350679 65 3151ft 138kts
14-Jan-21 12:24 35.342939 -119.308591 66 2612ft 132kts
14-Jan-21 12:25 35.358069 -119.268812 67 2311ft 127kts
14-Jan-21 12:26 35.372446 -119.229344 67 2012ft 126kts
14-Jan-21 12:27 35.386392 -119.190704 67 1886ft 122kts
14-Jan-21 12:28 35.400172 -119.152386 67 1750ft 124kts
14-Jan-21 12:29 35.413844 -119.114447 67 1561ft 119kts
14-Jan-21 12:30 35.423450 -119.077963 115 1549ft 112kts
14-Jan-21 12:31 35.402976 -119.049975 133 1553ft 107kts
14-Jan-21 12:32 35.411917 -119.025461 356 1242ft 103kts
14-Jan-21 12:33 35.429723 -119.051233 316 571ft 93kts
14-Jan-21 12:34 35.436681 -119.057494 96 494ft 10kts
14-Jan-21 12:35 35.435576 -119.056034 135 492ft 12kts
14-Jan-21 12:36 35.432937 -119.052843 130 492ft 1kts
14-Jan-21 12:37 35.431295 -119.050860 134 492ft 13kts
14-Jan-21 12:38 35.429832 -119.048622 58 491ft 10kts
14-Jan-21 12:39 35.430301 -119.046977 310 496ft 0kts
14-Jan-21 12:40 35.430301 -119.046977 310 496ft 0kts
14-Jan-21 12:41 35.430301 -119.046977 310 496ft 0kts

Navigation Log

Ident Type
Flight plan parsing failed, navigation log unavailable